sensor_id;sensor_type;location;lat;lon;timestamp;P1;durP1;ratioP1;P2;durP2;ratioP2
29414;SDS011;20303;48.302;11.914;2023-06-19T00:09:45;13.38;;;11.68;;
29414;SDS011;20303;48.302;11.914;2023-06-19T00:19:46;13.90;;;11.30;;
29414;SDS011;20303;48.302;11.914;2023-06-19T00:29:48;14.18;;;11.63;;
29414;SDS011;20303;48.302;11.914;2023-06-19T00:39:52;14.77;;;13.00;;
29414;SDS011;20303;48.302;11.914;2023-06-19T00:49:53;13.65;;;11.90;;
29414;SDS011;20303;48.302;11.914;2023-06-19T00:59:54;13.80;;;11.95;;
29414;SDS011;20303;48.302;11.914;2023-06-19T01:09:57;13.20;;;11.38;;
29414;SDS011;20303;48.302;11.914;2023-06-19T01:20:00;12.25;;;10.95;;
29414;SDS011;20303;48.302;11.914;2023-06-19T01:30:07;12.75;;;11.10;;
29414;SDS011;20303;48.302;11.914;2023-06-19T01:40:09;12.65;;;11.00;;
29414;SDS011;20303;48.302;11.914;2023-06-19T01:50:11;13.25;;;10.48;;
29414;SDS011;20303;48.302;11.914;2023-06-19T02:00:12;11.98;;;10.68;;
29414;SDS011;20303;48.302;11.914;2023-06-19T02:10:13;12.93;;;11.23;;
29414;SDS011;20303;48.302;11.914;2023-06-19T02:20:14;13.73;;;11.13;;
29414;SDS011;20303;48.302;11.914;2023-06-19T02:30:15;12.32;;;10.90;;
29414;SDS011;20303;48.302;11.914;2023-06-19T02:40:16;13.38;;;11.07;;
29414;SDS011;20303;48.302;11.914;2023-06-19T02:50:17;14.10;;;11.23;;
29414;SDS011;20303;48.302;11.914;2023-06-19T03:00:18;13.80;;;11.80;;
29414;SDS011;20303;48.302;11.914;2023-06-19T03:10:19;13.38;;;11.10;;
29414;SDS011;20303;48.302;11.914;2023-06-19T03:20:20;14.77;;;11.60;;
29414;SDS011;20303;48.302;11.914;2023-06-19T03:30:22;15.63;;;11.80;;
29414;SDS011;20303;48.302;11.914;2023-06-19T03:40:23;14.85;;;11.90;;
29414;SDS011;20303;48.302;11.914;2023-06-19T03:50:24;14.88;;;12.05;;
29414;SDS011;20303;48.302;11.914;2023-06-19T04:00:25;12.68;;;11.32;;
29414;SDS011;20303;48.302;11.914;2023-06-19T04:10:26;14.23;;;12.18;;
29414;SDS011;20303;48.302;11.914;2023-06-19T04:20:27;14.35;;;12.38;;
29414;SDS011;20303;48.302;11.914;2023-06-19T04:30:28;14.32;;;12.15;;
29414;SDS011;20303;48.302;11.914;2023-06-19T04:40:30;14.45;;;12.07;;
29414;SDS011;20303;48.302;11.914;2023-06-19T04:50:32;15.43;;;12.32;;
29414;SDS011;20303;48.302;11.914;2023-06-19T05:00:33;15.20;;;12.40;;
29414;SDS011;20303;48.302;11.914;2023-06-19T05:10:34;13.40;;;10.90;;
29414;SDS011;20303;48.302;11.914;2023-06-19T05:20:35;16.48;;;12.07;;
29414;SDS011;20303;48.302;11.914;2023-06-19T05:30:36;15.82;;;12.52;;
29414;SDS011;20303;48.302;11.914;2023-06-19T05:40:37;15.07;;;11.45;;
29414;SDS011;20303;48.302;11.914;2023-06-19T05:50:38;20.30;;;13.02;;
29414;SDS011;20303;48.302;11.914;2023-06-19T06:00:39;18.05;;;12.80;;
29414;SDS011;20303;48.302;11.914;2023-06-19T06:10:40;17.48;;;12.77;;
29414;SDS011;20303;48.302;11.914;2023-06-19T06:20:42;18.70;;;13.10;;
29414;SDS011;20303;48.302;11.914;2023-06-19T06:30:43;15.85;;;13.10;;
29414;SDS011;20303;48.302;11.914;2023-06-19T06:40:44;17.58;;;13.20;;
29414;SDS011;20303;48.302;11.914;2023-06-19T06:50:46;13.00;;;11.30;;
29414;SDS011;20303;48.302;11.914;2023-06-19T07:00:47;14.23;;;10.73;;
29414;SDS011;20303;48.302;11.914;2023-06-19T07:10:48;12.35;;;10.77;;
29414;SDS011;20303;48.302;11.914;2023-06-19T07:20:49;12.23;;;10.90;;
29414;SDS011;20303;48.302;11.914;2023-06-19T07:30:50;13.10;;;11.10;;
29414;SDS011;20303;48.302;11.914;2023-06-19T07:40:52;10.88;;;9.77;;
29414;SDS011;20303;48.302;11.914;2023-06-19T07:50:53;11.43;;;10.20;;
29414;SDS011;20303;48.302;11.914;2023-06-19T08:00:54;12.32;;;10.85;;
29414;SDS011;20303;48.302;11.914;2023-06-19T08:10:55;11.05;;;9.82;;
29414;SDS011;20303;48.302;11.914;2023-06-19T08:20:56;12.27;;;10.80;;
29414;SDS011;20303;48.302;11.914;2023-06-19T08:30:58;17.65;;;11.98;;
29414;SDS011;20303;48.302;11.914;2023-06-19T08:40:59;15.25;;;11.40;;
29414;SDS011;20303;48.302;11.914;2023-06-19T08:51:00;14.32;;;10.80;;
29414;SDS011;20303;48.302;11.914;2023-06-19T09:01:04;13.95;;;11.10;;
29414;SDS011;20303;48.302;11.914;2023-06-19T09:11:05;11.85;;;10.40;;
29414;SDS011;20303;48.302;11.914;2023-06-19T09:21:06;12.93;;;11.07;;
29414;SDS011;20303;48.302;11.914;2023-06-19T09:31:14;12.10;;;10.20;;
29414;SDS011;20303;48.302;11.914;2023-06-19T09:41:15;15.50;;;9.65;;
29414;SDS011;20303;48.302;11.914;2023-06-19T09:51:25;11.35;;;9.23;;
29414;SDS011;20303;48.302;11.914;2023-06-19T10:01:31;11.73;;;8.98;;
29414;SDS011;20303;48.302;11.914;2023-06-19T10:22:18;11.07;;;9.15;;
29414;SDS011;20303;48.302;11.914;2023-06-19T10:32:21;11.67;;;10.30;;
29414;SDS011;20303;48.302;11.914;2023-06-19T10:42:22;12.13;;;10.85;;
29414;SDS011;20303;48.302;11.914;2023-06-19T10:52:24;11.63;;;10.50;;
29414;SDS011;20303;48.302;11.914;2023-06-19T11:02:25;11.32;;;10.15;;
29414;SDS011;20303;48.302;11.914;2023-06-19T11:12:26;10.40;;;9.40;;
29414;SDS011;20303;48.302;11.914;2023-06-19T11:22:40;10.00;;;9.00;;
29414;SDS011;20303;48.302;11.914;2023-06-19T11:32:41;10.32;;;8.68;;
29414;SDS011;20303;48.302;11.914;2023-06-19T11:42:48;10.98;;;8.27;;
29414;SDS011;20303;48.302;11.914;2023-06-19T11:52:52;9.30;;;7.95;;
29414;SDS011;20303;48.302;11.914;2023-06-19T12:02:53;8.52;;;7.63;;
29414;SDS011;20303;48.302;11.914;2023-06-19T12:12:56;8.18;;;7.38;;
29414;SDS011;20303;48.302;11.914;2023-06-19T12:22:57;9.70;;;7.90;;
29414;SDS011;20303;48.302;11.914;2023-06-19T12:32:59;8.00;;;7.20;;
29414;SDS011;20303;48.302;11.914;2023-06-19T12:43:00;8.38;;;6.70;;
29414;SDS011;20303;48.302;11.914;2023-06-19T12:53:01;6.97;;;6.28;;
29414;SDS011;20303;48.302;11.914;2023-06-19T13:03:02;6.90;;;6.20;;
29414;SDS011;20303;48.302;11.914;2023-06-19T13:13:03;7.63;;;6.13;;
29414;SDS011;20303;48.302;11.914;2023-06-19T13:23:05;7.20;;;5.80;;
29414;SDS011;20303;48.302;11.914;2023-06-19T13:33:06;5.93;;;5.40;;
29414;SDS011;20303;48.302;11.914;2023-06-19T13:43:07;6.15;;;5.55;;
29414;SDS011;20303;48.302;11.914;2023-06-19T13:53:08;6.55;;;5.60;;
29414;SDS011;20303;48.302;11.914;2023-06-19T14:03:09;6.03;;;5.45;;
29414;SDS011;20303;48.302;11.914;2023-06-19T14:13:10;5.90;;;5.30;;
29414;SDS011;20303;48.302;11.914;2023-06-19T14:23:11;6.60;;;5.47;;
29414;SDS011;20303;48.302;11.914;2023-06-19T14:33:12;7.80;;;5.30;;
29414;SDS011;20303;48.302;11.914;2023-06-19T14:43:16;6.32;;;5.72;;
29414;SDS011;20303;48.302;11.914;2023-06-19T14:53:17;6.07;;;5.28;;
29414;SDS011;20303;48.302;11.914;2023-06-19T15:03:18;5.68;;;5.18;;
29414;SDS011;20303;48.302;11.914;2023-06-19T15:13:19;5.63;;;5.10;;
29414;SDS011;20303;48.302;11.914;2023-06-19T15:23:20;5.95;;;4.90;;
29414;SDS011;20303;48.302;11.914;2023-06-19T15:33:21;5.72;;;5.07;;
29414;SDS011;20303;48.302;11.914;2023-06-19T15:43:22;6.05;;;4.90;;
29414;SDS011;20303;48.302;11.914;2023-06-19T15:53:28;5.75;;;5.20;;
29414;SDS011;20303;48.302;11.914;2023-06-19T16:03:29;6.10;;;5.38;;
29414;SDS011;20303;48.302;11.914;2023-06-19T16:13:32;5.65;;;5.10;;
29414;SDS011;20303;48.302;11.914;2023-06-19T16:23:33;5.93;;;5.32;;
29414;SDS011;20303;48.302;11.914;2023-06-19T16:33:35;5.93;;;5.22;;
29414;SDS011;20303;48.302;11.914;2023-06-19T16:43:38;5.95;;;5.45;;
29414;SDS011;20303;48.302;11.914;2023-06-19T16:53:39;5.85;;;5.25;;
29414;SDS011;20303;48.302;11.914;2023-06-19T17:03:40;6.13;;;5.43;;
29414;SDS011;20303;48.302;11.914;2023-06-19T17:13:41;6.47;;;5.88;;
29414;SDS011;20303;48.302;11.914;2023-06-19T17:23:42;6.55;;;5.95;;
29414;SDS011;20303;48.302;11.914;2023-06-19T17:33:44;7.05;;;6.35;;
29414;SDS011;20303;48.302;11.914;2023-06-19T17:43:45;10.73;;;6.38;;
29414;SDS011;20303;48.302;11.914;2023-06-19T17:53:46;8.27;;;7.10;;
29414;SDS011;20303;48.302;11.914;2023-06-19T18:03:47;8.38;;;7.25;;
29414;SDS011;20303;48.302;11.914;2023-06-19T18:13:48;8.13;;;7.25;;
29414;SDS011;20303;48.302;11.914;2023-06-19T18:23:49;8.38;;;7.57;;
29414;SDS011;20303;48.302;11.914;2023-06-19T18:33:50;8.82;;;7.45;;
29414;SDS011;20303;48.302;11.914;2023-06-19T18:43:51;8.25;;;7.45;;
29414;SDS011;20303;48.302;11.914;2023-06-19T18:53:53;7.80;;;6.97;;
29414;SDS011;20303;48.302;11.914;2023-06-19T19:03:54;7.60;;;6.88;;
29414;SDS011;20303;48.302;11.914;2023-06-19T19:13:55;7.22;;;6.53;;
29414;SDS011;20303;48.302;11.914;2023-06-19T19:23:56;7.80;;;7.00;;
29414;SDS011;20303;48.302;11.914;2023-06-19T19:33:57;8.60;;;7.18;;
29414;SDS011;20303;48.302;11.914;2023-06-19T19:43:58;8.00;;;7.20;;
29414;SDS011;20303;48.302;11.914;2023-06-19T19:53:59;11.27;;;8.00;;
29414;SDS011;20303;48.302;11.914;2023-06-19T20:04:00;17.02;;;9.85;;
29414;SDS011;20303;48.302;11.914;2023-06-19T20:14:01;14.98;;;13.38;;
29414;SDS011;20303;48.302;11.914;2023-06-19T20:24:02;17.45;;;15.63;;
29414;SDS011;20303;48.302;11.914;2023-06-19T20:34:04;14.60;;;12.55;;
29414;SDS011;20303;48.302;11.914;2023-06-19T20:44:06;13.88;;;12.00;;
29414;SDS011;20303;48.302;11.914;2023-06-19T20:54:07;13.98;;;10.88;;
29414;SDS011;20303;48.302;11.914;2023-06-19T21:04:08;11.88;;;10.68;;
29414;SDS011;20303;48.302;11.914;2023-06-19T21:14:09;18.77;;;10.98;;
29414;SDS011;20303;48.302;11.914;2023-06-19T21:24:10;16.13;;;11.25;;
29414;SDS011;20303;48.302;11.914;2023-06-19T21:34:11;16.55;;;11.02;;
29414;SDS011;20303;48.302;11.914;2023-06-19T21:44:12;13.77;;;11.15;;
29414;SDS011;20303;48.302;11.914;2023-06-19T21:54:13;13.65;;;11.45;;
29414;SDS011;20303;48.302;11.914;2023-06-19T22:04:15;13.30;;;11.90;;
29414;SDS011;20303;48.302;11.914;2023-06-19T22:14:16;13.85;;;12.43;;
29414;SDS011;20303;48.302;11.914;2023-06-19T22:24:17;13.07;;;11.75;;
29414;SDS011;20303;48.302;11.914;2023-06-19T22:34:18;14.48;;;12.70;;
29414;SDS011;20303;48.302;11.914;2023-06-19T22:44:19;13.95;;;12.55;;
29414;SDS011;20303;48.302;11.914;2023-06-19T22:54:20;13.73;;;12.43;;
29414;SDS011;20303;48.302;11.914;2023-06-19T23:04:21;12.10;;;10.00;;
29414;SDS011;20303;48.302;11.914;2023-06-19T23:14:22;12.85;;;10.45;;
29414;SDS011;20303;48.302;11.914;2023-06-19T23:24:23;10.05;;;9.05;;
29414;SDS011;20303;48.302;11.914;2023-06-19T23:34:28;8.50;;;7.70;;
29414;SDS011;20303;48.302;11.914;2023-06-19T23:44:29;7.50;;;6.78;;
29414;SDS011;20303;48.302;11.914;2023-06-19T23:54:30;7.72;;;6.40;;
